createdAt,value
2022-11-21T00:00:00.476Z,100749.41
2022-11-21T00:02:30.902Z,100738.69
2022-11-21T00:05:01.250Z,100751.03
2022-11-21T00:07:31.626Z,100765.94
2022-11-21T00:10:01.941Z,100758.28
2022-11-21T00:12:32.233Z,100764.81
2022-11-21T00:15:03.006Z,100766.75
2022-11-21T00:17:33.293Z,100776.63
2022-11-21T00:20:03.600Z,100770.16
2022-11-21T00:22:34.808Z,100776.47
2022-11-21T00:25:05.253Z,100780.84
2022-11-21T00:27:35.523Z,100779.72
2022-11-21T00:30:06.724Z,100781.97
2022-11-21T00:32:37.043Z,100787.38
2022-11-21T00:35:08.399Z,100788.50
2022-11-21T00:37:39.045Z,100794.31
2022-11-21T00:40:09.944Z,100792.38
2022-11-21T00:42:41.015Z,100792.38
2022-11-21T00:45:11.755Z,100793.19
2022-11-21T00:47:42.157Z,100799.53
2022-11-21T00:50:13.210Z,100806.66
2022-11-21T00:52:43.625Z,100810.56
2022-11-21T00:55:13.938Z,100825.13
2022-11-21T00:57:44.391Z,100818.81
2022-11-21T01:00:15.347Z,100820.47
2022-11-21T01:02:46.156Z,100835.03
2022-11-21T01:05:16.611Z,100835.88
2022-11-21T01:07:47.150Z,100837.81
2022-11-21T01:10:17.756Z,100836.69
2022-11-21T01:12:48.274Z,100848.53
2022-11-21T01:15:18.895Z,100846.56
2022-11-21T01:17:49.415Z,100848.22
2022-11-21T01:20:19.762Z,100858.72
2022-11-21T01:22:50.011Z,100867.50
2022-11-21T01:25:20.440Z,100858.13
2022-11-21T01:27:50.710Z,100867.19
2022-11-21T01:30:21.105Z,100871.09
2022-11-21T01:32:52.419Z,100873.53
2022-11-21T01:35:22.423Z,100878.53
2022-11-21T01:37:52.508Z,100872.22
2022-11-21T01:40:24.598Z,100889.25
2022-11-21T01:43:05.678Z,100898.66
2022-11-21T01:45:59.046Z,100894.28
2022-11-21T01:49:13.808Z,100903.34
2022-11-21T01:52:02.854Z,100905.31
2022-11-21T01:55:02.610Z,100917.47
2022-11-21T01:57:42.336Z,100913.06
2022-11-21T02:00:23.807Z,100925.72
2022-11-21T02:02:58.680Z,100922.16
2022-11-21T02:05:33.864Z,100928.50
2022-11-21T02:08:17.772Z,100928.50
2022-11-21T02:10:59.463Z,100931.25
2022-11-21T02:13:30.362Z,100931.75
2022-11-21T02:16:01.120Z,100927.03
2022-11-21T02:18:31.473Z,100933.69
2022-11-21T02:21:28.282Z,100934.50
2022-11-21T02:24:32.816Z,100934.19
2022-11-21T02:27:04.305Z,100933.38
2022-11-21T02:29:35.247Z,100925.91
2022-11-21T02:32:09.345Z,100932.25
2022-11-21T02:34:39.685Z,100931.94
2022-11-21T02:37:12.233Z,100923.16
2022-11-21T02:39:43.249Z,100922.03
2022-11-21T02:42:25.249Z,100925.59
2022-11-21T02:45:21.360Z,100922.34
2022-11-21T02:48:00.672Z,100922.84
2022-11-21T02:50:36.659Z,100925.31
2022-11-21T02:53:10.522Z,100922.03
2022-11-21T02:55:41.254Z,100914.56
2022-11-21T02:58:11.826Z,100912.63
2022-11-21T03:00:44.081Z,100909.06
2022-11-21T03:03:14.742Z,100913.94
2022-11-21T03:05:45.716Z,100917.84
2022-11-21T03:08:17.016Z,100917.84
2022-11-21T03:10:47.337Z,100912.63
2022-11-21T03:13:17.950Z,100906.28
2022-11-21T03:15:48.096Z,100913.44
2022-11-21T03:18:18.630Z,100919.47
2022-11-21T03:20:48.966Z,100924.97
2022-11-21T03:23:19.489Z,100924.69
2022-11-21T03:25:49.801Z,100925.47
2022-11-21T03:28:20.101Z,100922.22
2022-11-21T03:30:50.494Z,100924.97
2022-11-21T03:33:20.784Z,100917.84
2022-11-21T03:35:51.245Z,100908.44
2022-11-21T03:38:22.111Z,100910.06
2022-11-21T03:40:52.436Z,100907.31
2022-11-21T03:43:22.639Z,100913.66
2022-11-21T03:45:53.054Z,100906.19
2022-11-21T03:48:23.415Z,100901.47
2022-11-21T03:50:53.771Z,100896.78
2022-11-21T03:53:24.139Z,100903.09
2022-11-21T03:55:54.455Z,100892.06
2022-11-21T03:58:24.737Z,100884.63
2022-11-21T04:00:55.123Z,100876.34
2022-11-21T04:03:25.498Z,100863.69
2022-11-21T04:05:55.831Z,100864.19
2022-11-21T04:08:26.377Z,100860.59
2022-11-21T04:10:57.686Z,100852.34
2022-11-21T04:13:27.593Z,100847.31
2022-11-21T04:15:58.150Z,100844.88
2022-11-21T04:18:28.449Z,100833.03
2022-11-21T04:21:03.123Z,100825.59
2022-11-21T04:23:33.452Z,100827.50
2022-11-21T04:26:04.112Z,100828.34
2022-11-21T04:28:34.606Z,100823.34
2022-11-21T04:31:10.442Z,100824.47
2022-11-21T04:33:42.326Z,100808.22
2022-11-21T04:36:12.382Z,100807.63
2022-11-21T04:38:42.459Z,100807.91
2022-11-21T04:41:12.602Z,100803.72
2022-11-21T04:43:43.311Z,100794.66
2022-11-21T04:46:13.831Z,100789.13
2022-11-21T04:48:44.161Z,100789.94
2022-11-21T04:51:14.421Z,100783.09
2022-11-21T04:53:44.770Z,100771.47
2022-11-21T04:56:19.894Z,100775.00
2022-11-21T04:58:50.212Z,100770.31
2022-11-21T05:01:20.695Z,100764.00
2022-11-21T05:03:51.050Z,100754.59
2022-11-21T05:06:21.447Z,100749.88
2022-11-21T05:08:54.111Z,100743.56
2022-11-21T05:11:42.930Z,100738.84
2022-11-21T05:14:14.309Z,100739.66
2022-11-21T05:16:44.582Z,100731.06
2022-11-21T05:19:14.945Z,100728.81
2022-11-21T05:21:45.297Z,100729.13
2022-11-21T05:24:15.589Z,100724.41
2022-11-21T05:26:45.891Z,100722.16
2022-11-21T05:29:16.355Z,100716.63
2022-11-21T05:31:46.621Z,100714.22
2022-11-21T05:34:17.138Z,100710.00
2022-11-21T05:36:47.421Z,100696.84
2022-11-21T05:39:18.207Z,100693.13
2022-11-21T05:41:48.505Z,100684.38
2022-11-21T05:44:18.868Z,100676.56
2022-11-21T05:46:49.477Z,100678.53
2022-11-21T05:49:19.785Z,100673.50
2022-11-21T05:51:50.132Z,100674.31
2022-11-21T05:54:20.423Z,100665.22
2022-11-21T05:56:50.718Z,100658.59
2022-11-21T05:59:21.096Z,100656.31
2022-11-21T06:02:10.035Z,100651.94
2022-11-21T06:04:40.329Z,100660.22
2022-11-21T06:07:10.755Z,100650.81
2022-11-21T06:09:41.086Z,100648.03
2022-11-21T06:12:11.864Z,100653.56
2022-11-21T06:14:42.149Z,100644.16
2022-11-21T06:17:12.523Z,100641.69
2022-11-21T06:19:42.899Z,100636.19
2022-11-21T06:22:13.224Z,100635.38
2022-11-21T06:24:43.333Z,100631.50
2022-11-21T06:27:13.477Z,100620.75
2022-11-21T06:29:43.561Z,100620.47
2022-11-21T06:32:13.925Z,100614.94
2022-11-21T06:34:44.248Z,100619.31
2022-11-21T06:37:14.543Z,100607.13
2022-11-21T06:39:44.938Z,100597.72
2022-11-21T06:42:15.299Z,100601.31
2022-11-21T06:44:45.585Z,100602.09
2022-11-21T06:47:16.097Z,100590.78
2022-11-21T06:49:46.295Z,100582.50
2022-11-21T06:52:16.605Z,100584.41
2022-11-21T06:54:46.930Z,100582.81
2022-11-21T06:57:17.228Z,100575.34
2022-11-21T06:59:47.416Z,100570.63
2022-11-21T07:02:18.766Z,100565.59
2022-11-21T07:04:49.331Z,100559.28
2022-11-21T07:07:19.793Z,100558.63
2022-11-21T07:09:50.660Z,100559.28
2022-11-21T07:12:44.122Z,100559.28
2022-11-21T07:15:14.789Z,100549.06
2022-11-21T07:17:45.167Z,100556.19
2022-11-21T07:20:15.829Z,100546.78
2022-11-21T07:22:46.121Z,100548.41
2022-11-21T07:25:16.449Z,100546.78
2022-11-21T07:27:46.555Z,100551.16
2022-11-21T07:30:17.136Z,100546.78
2022-11-21T07:32:47.359Z,100536.56
2022-11-21T07:35:17.661Z,100540.13
2022-11-21T07:37:47.991Z,100539.31
2022-11-21T07:40:18.333Z,100535.09
2022-11-21T07:42:50.076Z,100527.97
2022-11-21T07:45:20.934Z,100522.44
2022-11-21T07:47:59.291Z,100527.97
2022-11-21T07:50:30.547Z,100535.09
2022-11-21T07:53:03.960Z,100525.69
2022-11-21T07:55:39.211Z,100523.75
2022-11-21T07:58:14.007Z,100530.38
2022-11-21T08:00:45.047Z,100528.94
2022-11-21T08:03:16.369Z,100525.69
2022-11-21T08:05:47.111Z,100536.09
2022-11-21T08:08:17.895Z,100537.22
2022-11-21T08:10:49.299Z,100528.94
2022-11-21T08:13:19.192Z,100525.06
2022-11-21T08:15:49.357Z,100530.25
2022-11-21T08:18:23.793Z,100537.03
2022-11-21T08:20:54.102Z,100527.47
2022-11-21T08:23:24.476Z,100531.53
2022-11-21T08:25:54.676Z,100529.59
2022-11-21T08:28:24.804Z,100534.28
2022-11-21T08:30:55.017Z,100528.47
2022-11-21T08:33:25.447Z,100532.03
2022-11-21T08:35:55.800Z,100528.13
2022-11-21T08:38:26.192Z,100533.66
2022-11-21T08:41:17.788Z,100529.25
2022-11-21T08:43:57.742Z,100523.75
2022-11-21T08:46:33.501Z,100522.13
2022-11-21T08:49:03.878Z,100533.16
2022-11-21T08:51:34.238Z,100527.63
2022-11-21T08:54:06.236Z,100537.88
2022-11-21T08:56:36.845Z,100533.97
2022-11-21T08:59:07.152Z,100523.75
2022-11-21T09:01:37.252Z,100533.66
2022-11-21T09:04:08.092Z,100526.84
2022-11-21T09:06:39.153Z,100533.16
2022-11-21T09:09:10.056Z,100535.59
2022-11-21T09:11:40.355Z,100535.59
2022-11-21T09:14:29.305Z,100530.88
2022-11-21T09:17:17.994Z,100541.91
2022-11-21T09:19:48.291Z,100537.22
2022-11-21T09:22:18.733Z,100543.53
2022-11-21T09:24:49.258Z,100549.06
2022-11-21T09:27:19.616Z,100551.34
2022-11-21T09:29:54.115Z,100551.34
2022-11-21T09:32:25.045Z,100551.34
2022-11-21T09:34:55.415Z,100556.53
2022-11-21T09:37:25.856Z,100551.97
2022-11-21T09:39:56.139Z,100559.59
2022-11-21T09:42:41.998Z,100562.38
2022-11-21T09:45:22.046Z,100566.25
2022-11-21T09:47:54.799Z,100564.00
2022-11-21T09:50:39.108Z,100569.50
2022-11-21T09:53:14.471Z,100573.41
2022-11-21T09:55:49.066Z,100576.66
2022-11-21T09:58:35.069Z,100578.63
2022-11-21T10:01:05.677Z,100576.66
2022-11-21T10:03:48.200Z,100575.53
2022-11-21T10:06:29.180Z,100583.47
2022-11-21T10:09:43.715Z,100577.00
2022-11-21T10:12:42.499Z,100576.66
2022-11-21T10:15:36.780Z,100580.56
2022-11-21T10:18:44.388Z,100584.13
2022-11-21T10:21:24.688Z,100590.78
2022-11-21T10:24:42.967Z,100584.44
2022-11-21T10:27:22.920Z,100596.31
2022-11-21T10:30:00.487Z,100601.84
2022-11-21T10:32:40.062Z,100607.66
2022-11-21T10:38:26.299Z,100618.38
2022-11-21T10:41:25.834Z,100610.56
2022-11-21T10:44:41.229Z,100610.91
2022-11-21T10:47:32.406Z,100615.28
2022-11-21T10:50:11.525Z,100613.66
2022-11-21T10:52:53.449Z,100609.78
2022-11-21T10:55:23.799Z,100620.31
2022-11-21T10:57:56.559Z,100629.44
2022-11-21T11:00:29.231Z,100628.28
2022-11-21T11:02:59.696Z,100634.13
2022-11-21T11:05:32.540Z,100638.50
2022-11-21T11:08:04.555Z,100643.22
2022-11-21T11:10:42.439Z,100644.03
2022-11-21T11:13:52.140Z,100657.47
2022-11-21T11:16:24.515Z,100660.91
2022-11-21T11:19:29.843Z,100657.47
2022-11-21T11:22:03.194Z,100657.31
2022-11-21T11:24:33.548Z,100666.09
2022-11-21T11:27:05.624Z,100657.81
2022-11-21T11:29:37.875Z,100668.06
2022-11-21T11:32:23.715Z,100663.84
2022-11-21T11:35:02.436Z,100672.09
2022-11-21T11:37:40.126Z,100672.91
2022-11-21T11:40:26.060Z,100675.19
2022-11-21T11:43:26.382Z,100681.53
2022-11-21T11:46:51.729Z,100688.66
2022-11-21T11:49:58.134Z,100690.94
2022-11-21T11:52:37.100Z,100698.06
2022-11-21T11:55:11.975Z,100710.25
2022-11-21T11:57:44.089Z,100710.25
2022-11-21T12:00:25.756Z,100714.13
2022-11-21T12:03:23.946Z,100719.34
2022-11-21T12:06:13.587Z,100726.47
2022-11-21T12:08:58.746Z,100740.75
2022-11-21T12:11:51.739Z,100728.09
2022-11-21T12:15:17.570Z,100731.69
2022-11-21T12:17:50.403Z,100738.34
2022-11-21T12:20:33.202Z,100743.53
2022-11-21T12:23:03.705Z,100751.81
2022-11-21T12:25:39.450Z,100749.88
2022-11-21T12:28:22.295Z,100749.38
2022-11-21T12:31:07.499Z,100757.66
2022-11-21T12:33:48.352Z,100763.97
2022-11-21T12:36:23.152Z,100767.88
2022-11-21T12:39:05.611Z,100767.56
2022-11-21T12:42:09.506Z,100768.06
2022-11-21T12:44:57.456Z,100766.75
2022-11-21T12:48:03.621Z,100770.31
2022-11-21T12:51:08.635Z,100771.44
2022-11-21T12:54:40.897Z,100775.50
2022-11-21T12:57:14.278Z,100779.91
2022-11-21T12:59:53.513Z,100782.34
2022-11-21T13:02:44.576Z,100786.25
2022-11-21T13:05:22.298Z,100782.66
2022-11-21T13:07:58.114Z,100786.56
2022-11-21T13:10:29.933Z,100789.00
2022-11-21T13:13:25.146Z,100794.03
2022-11-21T13:16:18.169Z,100798.41
2022-11-21T13:18:52.243Z,100815.78
2022-11-21T13:21:44.173Z,100824.38
2022-11-21T13:24:34.306Z,100830.72
2022-11-21T13:27:04.615Z,100832.34
2022-11-21T13:29:35.084Z,100833.47
2022-11-21T13:32:44.084Z,100835.44
2022-11-21T13:35:23.423Z,100834.31
2022-11-21T13:40:33.882Z,100839.84
2022-11-21T13:43:35.205Z,100844.66
2022-11-21T13:46:05.668Z,100841.13
2022-11-21T13:48:57.555Z,100843.53
2022-11-21T13:51:41.295Z,100843.53
2022-11-21T13:54:26.872Z,100842.88
2022-11-21T13:57:06.275Z,100850.22
2022-11-21T13:59:51.962Z,100844.84
2022-11-21T14:02:48.035Z,100850.34
2022-11-21T14:05:24.542Z,100854.09
2022-11-21T14:07:55.100Z,100843.38
2022-11-21T14:10:37.397Z,100853.44
2022-11-21T14:13:07.857Z,100852.31
2022-11-21T14:15:50.572Z,100850.34
2022-11-21T14:18:27.271Z,100847.97
2022-11-21T14:21:03.017Z,100851.84
2022-11-21T14:23:37.110Z,100844.69
2022-11-21T14:26:15.117Z,100851.69
2022-11-21T14:28:45.731Z,100846.63
2022-11-21T14:31:19.603Z,100849.06
2022-11-21T14:33:51.561Z,100850.84
2022-11-21T14:36:34.140Z,100849.72
2022-11-21T14:39:35.899Z,100851.03
2022-11-21T14:42:07.722Z,100854.13
2022-11-21T14:44:38.048Z,100857.00
2022-11-21T14:47:26.317Z,100857.22
2022-11-21T14:50:03.886Z,100865.16
2022-11-21T14:52:38.037Z,100866.13
2022-11-21T14:58:03.849Z,100876.53
2022-11-21T15:00:58.757Z,100879.31
2022-11-21T15:03:26.220Z,100865.97
2022-11-21T15:06:07.444Z,100876.22
2022-11-21T15:11:43.798Z,100874.94
2022-11-21T15:14:44.844Z,100881.25
2022-11-21T15:17:21.270Z,100881.09
2022-11-21T15:20:14.756Z,100885.63
2022-11-21T15:22:45.348Z,100880.25
2022-11-21T15:25:22.947Z,100882.72
2022-11-21T15:27:55.709Z,100877.69
2022-11-21T15:30:32.274Z,100879.47
2022-11-21T15:33:10.204Z,100875.56
2022-11-21T15:35:59.710Z,100868.91
2022-11-21T15:38:36.514Z,100865.97
2022-11-21T15:41:12.791Z,100860.06
2022-11-21T15:43:44.519Z,100859.25
2022-11-21T15:46:26.975Z,100851.88
2022-11-21T15:49:25.106Z,100847.47
2022-11-21T15:52:09.913Z,100846.19
2022-11-21T15:54:40.905Z,100841.78
2022-11-21T15:57:17.305Z,100841.78
2022-11-21T15:59:49.687Z,100838.22
2022-11-21T16:02:20.456Z,100834.34
2022-11-21T16:04:50.820Z,100825.22
2022-11-21T16:07:21.309Z,100820.53
2022-11-21T16:09:52.382Z,100824.09
2022-11-21T16:12:22.877Z,100820.84
2022-11-21T16:14:53.415Z,100822.63
2022-11-21T16:17:23.839Z,100821.66
2022-11-21T16:19:54.246Z,100823.59
2022-11-21T16:22:24.662Z,100832.72
2022-11-21T16:24:55.376Z,100823.59
2022-11-21T16:27:28.521Z,100826.19
2022-11-21T16:29:58.811Z,100830.25
2022-11-21T16:32:29.368Z,100829.44
2022-11-21T16:35:00.755Z,100831.06
2022-11-21T16:37:33.688Z,100824.72
2022-11-21T16:40:04.173Z,100817.56
2022-11-21T16:42:34.620Z,100822.28
2022-11-21T16:45:05.046Z,100822.28
2022-11-21T16:47:37.962Z,100827.50
2022-11-21T16:50:08.891Z,100819.88
2022-11-21T16:52:39.483Z,100828.94
2022-11-21T16:55:10.166Z,100815.16
2022-11-21T16:57:40.740Z,100807.19
2022-11-21T17:00:14.297Z,100803.94
2022-11-21T17:02:45.066Z,100808.63
2022-11-21T17:05:15.651Z,100808.63
2022-11-21T17:07:47.316Z,100804.56
2022-11-21T17:10:18.663Z,100811.22
2022-11-21T17:12:49.165Z,100801.31
2022-11-21T17:15:19.676Z,100804.41
2022-11-21T17:17:50.293Z,100800.50
2022-11-21T17:20:20.512Z,100796.63
2022-11-21T17:22:50.961Z,100796.63
2022-11-21T17:25:21.471Z,100800.50
2022-11-21T17:27:51.935Z,100790.28
2022-11-21T17:30:23.722Z,100789.47
2022-11-21T17:32:54.417Z,100775.69
2022-11-21T17:35:24.694Z,100783.97
2022-11-21T17:37:55.084Z,100773.72
2022-11-21T17:40:25.504Z,100772.09
2022-11-21T17:42:55.883Z,100770.97
2022-11-21T17:45:27.577Z,100772.09
2022-11-21T17:47:58.050Z,100772.41
2022-11-21T17:50:28.389Z,100760.56
2022-11-21T17:53:00.039Z,100766.91
2022-11-21T17:55:30.502Z,100757.00
2022-11-21T17:58:00.792Z,100758.63
2022-11-21T18:00:31.417Z,100752.28
2022-11-21T18:03:01.871Z,100749.84
2022-11-21T18:05:32.142Z,100749.84
2022-11-21T18:08:02.484Z,100744.00
2022-11-21T18:10:47.687Z,100746.75
2022-11-21T18:13:18.059Z,100735.72
2022-11-21T18:15:48.492Z,100742.88
2022-11-21T18:18:18.760Z,100744.00
2022-11-21T18:20:49.557Z,100738.47
2022-11-21T18:23:20.133Z,100738.47
2022-11-21T18:25:50.415Z,100743.50
2022-11-21T18:28:20.795Z,100740.75
2022-11-21T18:30:51.032Z,100746.75
2022-11-21T18:33:21.280Z,100734.41
2022-11-21T18:35:51.575Z,100733.59
2022-11-21T18:38:46.885Z,100727.78
2022-11-21T18:41:18.368Z,100722.56
2022-11-21T18:43:55.409Z,100728.91
2022-11-21T18:46:29.030Z,100723.38
2022-11-21T18:49:04.802Z,100718.66
2022-11-21T18:51:36.894Z,100717.53
2022-11-21T18:54:09.985Z,100725.00
2022-11-21T18:56:41.986Z,100713.47
2022-11-21T18:59:12.533Z,100707.63
2022-11-21T19:01:42.982Z,100708.44
2022-11-21T19:04:13.207Z,100711.22
2022-11-21T19:06:43.620Z,100709.91
2022-11-21T19:09:13.970Z,100708.75
2022-11-21T19:11:44.411Z,100707.97
2022-11-21T19:14:14.850Z,100699.34
2022-11-21T19:16:45.062Z,100695.78
2022-11-21T19:19:34.538Z,100696.13
2022-11-21T19:22:07.747Z,100694.97
2022-11-21T19:24:38.044Z,100698.88
2022-11-21T19:27:09.211Z,100690.28
2022-11-21T19:29:39.587Z,100685.56
2022-11-21T19:32:09.612Z,100686.69
2022-11-21T19:34:40.223Z,100676.81
2022-11-21T19:37:10.560Z,100677.59
2022-11-21T19:39:40.887Z,100672.41
2022-11-21T19:42:11.184Z,100675.34
2022-11-21T19:44:41.479Z,100679.72
2022-11-21T19:47:12.942Z,100675.66
2022-11-21T19:49:43.222Z,100674.06
2022-11-21T19:52:13.468Z,100674.84
2022-11-21T19:54:44.595Z,100670.97
2022-11-21T19:57:15.262Z,100668.53
2022-11-21T19:59:47.019Z,100664.16
2022-11-21T20:02:23.487Z,100658.13
2022-11-21T20:04:53.875Z,100662.19
2022-11-21T20:07:24.629Z,100660.88
2022-11-21T20:09:55.043Z,100662.81
2022-11-21T20:12:25.350Z,100662.53
2022-11-21T20:14:55.888Z,100658.94
2022-11-21T20:17:26.288Z,100656.50
2022-11-21T20:19:56.579Z,100668.03
2022-11-21T20:22:26.947Z,100665.28
2022-11-21T20:24:57.304Z,100658.94
2022-11-21T20:27:27.963Z,100647.72
2022-11-21T20:29:58.262Z,100649.03
2022-11-21T20:32:30.539Z,100658.94
2022-11-21T20:35:00.932Z,100653.41
2022-11-21T20:37:31.910Z,100648.22
2022-11-21T20:40:02.108Z,100648.22
2022-11-21T20:42:32.414Z,100647.09
2022-11-21T20:47:52.875Z,100657.31
2022-11-21T20:51:03.449Z,100643.84
2022-11-21T20:56:12.437Z,100651.63
2022-11-21T20:58:44.953Z,100653.25
2022-11-21T21:01:17.659Z,100657.94
2022-11-21T21:03:48.257Z,100662.31
2022-11-21T21:06:19.264Z,100665.41
2022-11-21T21:08:53.815Z,100663.16
2022-11-21T21:11:50.375Z,100659.09
2022-11-21T21:14:16.776Z,100653.25
2022-11-21T21:16:47.262Z,100656.00
2022-11-21T21:19:17.958Z,100648.53
2022-11-21T21:21:48.352Z,100648.88
2022-11-21T21:24:19.546Z,100649.66
2022-11-21T21:26:51.391Z,100651.63
2022-11-21T21:29:23.743Z,100651.63
2022-11-21T21:31:54.110Z,100650.81
2022-11-21T21:34:25.544Z,100644.97
2022-11-21T21:36:55.348Z,100646.44
2022-11-21T21:39:25.450Z,100651.63
2022-11-21T21:41:56.052Z,100650.63
2022-11-21T21:44:32.780Z,100650.00
2022-11-21T21:47:04.333Z,100662.16
2022-11-21T21:49:34.671Z,100661.03
2022-11-21T21:52:05.417Z,100661.03
2022-11-21T21:54:36.192Z,100659.41
2022-11-21T21:57:06.625Z,100661.03
2022-11-21T21:59:36.755Z,100656.66
2022-11-21T22:02:07.166Z,100652.75
2022-11-21T22:04:37.497Z,100646.91
2022-11-21T22:07:07.909Z,100649.38
2022-11-21T22:09:38.441Z,100644.97
2022-11-21T22:12:08.771Z,100640.94
2022-11-21T22:14:38.953Z,100641.22
2022-11-21T22:17:09.077Z,100639.59
2022-11-21T22:19:39.242Z,100650.00
2022-11-21T22:22:09.294Z,100645.63
2022-11-21T22:24:41.434Z,100643.34
2022-11-21T22:27:11.821Z,100648.38
2022-11-21T22:29:41.899Z,100646.44
2022-11-21T22:34:47.348Z,100660.06
2022-11-21T22:37:17.604Z,100659.56
2022-11-21T22:39:48.079Z,100659.09
2022-11-21T22:42:18.420Z,100672.06
2022-11-21T22:44:49.114Z,100668.97
2022-11-21T22:47:19.696Z,100679.22
2022-11-21T22:49:50.054Z,100677.59
2022-11-21T22:52:20.532Z,100681.00
2022-11-21T22:54:50.803Z,100680.84
2022-11-21T22:57:21.430Z,100675.16
2022-11-21T22:59:52.015Z,100687.31
2022-11-21T23:02:34.261Z,100681.94
2022-11-21T23:05:06.345Z,100700.47
2022-11-21T23:07:37.980Z,100690.22
2022-11-21T23:10:09.010Z,100702.72
2022-11-21T23:12:39.610Z,100696.06
2022-11-21T23:15:10.489Z,100703.00
2022-11-21T23:17:40.744Z,100713.75
2022-11-21T23:20:11.781Z,100717.31
2022-11-21T23:22:42.005Z,100720.91
2022-11-21T23:25:12.507Z,100724.44
2022-11-21T23:27:42.571Z,100717.31
2022-11-21T23:30:13.701Z,100727.53
2022-11-21T23:32:43.760Z,100736.63
2022-11-21T23:35:14.079Z,100737.75
2022-11-21T23:37:44.221Z,100735.81
2022-11-21T23:40:15.018Z,100749.91
2022-11-21T23:42:46.497Z,100751.88
2022-11-21T23:45:17.075Z,100746.34
2022-11-21T23:47:47.409Z,100769.53
2022-11-21T23:50:18.963Z,100777.81
2022-11-21T23:52:50.361Z,100789.47
2022-11-21T23:55:21.536Z,100792.75
2022-11-21T23:57:52.545Z,100799.88
